createdAt,value
2022-11-20T00:01:48.752Z,18.49
2022-11-20T00:04:15.117Z,18.56
2022-11-20T00:06:41.479Z,18.56
2022-11-20T00:09:07.814Z,18.52
2022-11-20T00:11:34.175Z,19.02
2022-11-20T00:14:00.516Z,19.24
2022-11-20T00:16:26.842Z,19.34
2022-11-20T00:18:53.226Z,19.34
2022-11-20T00:21:19.552Z,19.41
2022-11-20T00:23:45.937Z,19.38
2022-11-20T00:26:12.343Z,19.24
2022-11-20T00:28:38.675Z,19.33
2022-11-20T00:31:05.094Z,19.31
2022-11-20T00:33:31.435Z,19.20
2022-11-20T00:35:57.799Z,19.10
2022-11-20T00:38:24.174Z,19.12
2022-11-20T00:40:54.693Z,19.14
2022-11-20T00:43:16.890Z,19.14
2022-11-20T00:45:43.230Z,19.22
2022-11-20T00:48:09.612Z,19.62
2022-11-20T00:50:35.963Z,19.90
2022-11-20T00:53:02.298Z,20.04
2022-11-20T00:55:28.695Z,19.83
2022-11-20T00:57:55.058Z,19.66
2022-11-20T01:00:21.374Z,19.90
2022-11-20T01:02:47.719Z,20.98
2022-11-20T01:05:14.113Z,21.41
2022-11-20T01:07:40.582Z,20.97
2022-11-20T01:10:06.843Z,20.43
2022-11-20T01:12:33.187Z,20.26
2022-11-20T01:14:59.507Z,20.58
2022-11-20T01:17:25.916Z,20.69
2022-11-20T01:19:52.267Z,20.73
2022-11-20T01:22:18.664Z,21.11
2022-11-20T01:24:45.015Z,21.63
2022-11-20T01:27:11.419Z,21.99
2022-11-20T01:29:37.767Z,22.10
2022-11-20T01:32:04.136Z,22.24
2022-11-20T01:34:30.465Z,22.42
2022-11-20T01:36:56.809Z,21.97
2022-11-20T01:39:23.502Z,21.75
2022-11-20T01:41:49.543Z,21.84
2022-11-20T01:44:15.941Z,21.91
2022-11-20T01:46:42.283Z,21.61
2022-11-20T01:49:08.806Z,21.31
2022-11-20T01:51:35.191Z,20.90
2022-11-20T01:54:01.500Z,20.78
2022-11-20T01:56:27.893Z,20.69
2022-11-20T01:58:54.193Z,21.16
2022-11-20T02:01:20.632Z,22.05
2022-11-20T02:03:46.980Z,22.56
2022-11-20T02:06:13.347Z,22.64
2022-11-20T02:08:39.669Z,22.47
2022-11-20T02:11:06.062Z,22.48
2022-11-20T02:13:32.414Z,22.80
2022-11-20T02:15:58.745Z,22.81
2022-11-20T02:18:25.064Z,22.60
2022-11-20T02:20:51.463Z,22.63
2022-11-20T02:23:17.782Z,22.58
2022-11-20T02:25:44.154Z,22.80
2022-11-20T02:28:10.520Z,22.63
2022-11-20T02:30:36.904Z,22.49
2022-11-20T02:33:03.259Z,22.60
2022-11-20T02:35:29.602Z,22.80
2022-11-20T02:37:55.962Z,23.08
2022-11-20T02:40:22.383Z,23.06
2022-11-20T02:42:48.724Z,22.93
2022-11-20T02:45:15.107Z,22.67
2022-11-20T02:47:41.466Z,22.75
2022-11-20T02:50:07.857Z,22.78
2022-11-20T02:52:34.185Z,22.65
2022-11-20T02:55:00.615Z,22.74
2022-11-20T02:57:26.982Z,22.73
2022-11-20T02:59:53.354Z,22.82
2022-11-20T03:02:19.739Z,22.82
2022-11-20T03:04:46.111Z,22.79
2022-11-20T03:07:12.587Z,22.81
2022-11-20T03:09:38.905Z,22.71
2022-11-20T03:12:05.236Z,22.57
2022-11-20T03:14:31.585Z,22.64
2022-11-20T03:16:57.922Z,22.38
2022-11-20T03:19:24.319Z,22.59
2022-11-20T03:21:50.635Z,22.70
2022-11-20T03:24:17.002Z,22.82
2022-11-20T03:26:43.376Z,22.73
2022-11-20T03:29:09.732Z,22.68
2022-11-20T03:31:36.045Z,22.64
2022-11-20T03:34:02.393Z,22.51
2022-11-20T03:36:28.760Z,22.59
2022-11-20T03:38:55.100Z,22.75
2022-11-20T03:41:21.475Z,22.63
2022-11-20T03:43:47.839Z,22.49
2022-11-20T03:46:14.198Z,22.48
2022-11-20T03:48:40.554Z,22.61
2022-11-20T03:51:06.920Z,22.75
2022-11-20T03:53:33.294Z,22.82
2022-11-20T03:55:59.612Z,22.75
2022-11-20T03:58:25.956Z,22.85
2022-11-20T04:00:52.287Z,22.88
2022-11-20T04:03:18.636Z,22.74
2022-11-20T04:05:44.966Z,22.81
2022-11-20T04:08:11.353Z,22.79
2022-11-20T04:10:37.675Z,22.65
2022-11-20T04:13:04.084Z,22.58
2022-11-20T04:15:34.302Z,22.52
2022-11-20T04:17:56.796Z,22.65
2022-11-20T04:20:23.227Z,22.65
2022-11-20T04:22:49.602Z,22.65
2022-11-20T04:25:15.918Z,22.63
2022-11-20T04:27:42.331Z,22.55
2022-11-20T04:30:08.698Z,22.60
2022-11-20T04:32:35.071Z,22.59
2022-11-20T04:35:01.426Z,22.48
2022-11-20T04:37:27.812Z,22.48
2022-11-20T04:39:54.131Z,22.46
2022-11-20T04:42:20.476Z,22.39
2022-11-20T04:44:46.799Z,22.39
2022-11-20T04:47:13.186Z,22.43
2022-11-20T04:49:39.590Z,22.48
2022-11-20T04:52:05.937Z,22.41
2022-11-20T04:54:32.312Z,22.18
2022-11-20T04:56:58.628Z,22.22
2022-11-20T04:59:25.018Z,22.22
2022-11-20T05:01:51.481Z,22.18
2022-11-20T05:04:17.778Z,22.16
2022-11-20T05:06:44.104Z,22.24
2022-11-20T05:09:10.487Z,22.14
2022-11-20T05:11:36.803Z,22.07
2022-11-20T05:14:03.147Z,22.01
2022-11-20T05:16:29.509Z,21.89
2022-11-20T05:18:55.891Z,21.94
2022-11-20T05:21:22.200Z,21.92
2022-11-20T05:23:48.579Z,21.85
2022-11-20T05:26:14.903Z,21.75
2022-11-20T05:28:41.252Z,21.61
2022-11-20T05:31:07.614Z,21.43
2022-11-20T05:33:33.972Z,21.07
2022-11-20T05:36:00.401Z,21.08
2022-11-20T05:38:26.776Z,21.03
2022-11-20T05:40:53.093Z,20.79
2022-11-20T05:43:19.569Z,20.77
2022-11-20T05:45:45.894Z,20.79
2022-11-20T05:48:12.246Z,20.82
2022-11-20T05:50:38.577Z,20.87
2022-11-20T05:53:04.967Z,20.77
2022-11-20T05:55:31.316Z,20.77
2022-11-20T05:57:57.666Z,20.95
2022-11-20T06:00:24.054Z,20.92
2022-11-20T06:02:50.534Z,21.00
2022-11-20T06:05:16.809Z,21.01
2022-11-20T06:07:43.284Z,20.93
2022-11-20T06:10:09.528Z,21.06
2022-11-20T06:12:35.921Z,21.19
2022-11-20T06:15:02.254Z,21.32
2022-11-20T06:17:28.664Z,21.03
2022-11-20T06:19:55.016Z,21.17
2022-11-20T06:22:21.406Z,21.05
2022-11-20T06:24:47.764Z,21.17
2022-11-20T06:27:14.139Z,21.23
2022-11-20T06:29:40.454Z,21.23
2022-11-20T06:32:06.841Z,21.38
2022-11-20T06:34:33.218Z,21.30
2022-11-20T06:36:59.588Z,21.34
2022-11-20T06:39:25.908Z,21.34
2022-11-20T06:41:55.812Z,21.21
2022-11-20T06:44:18.622Z,21.21
2022-11-20T06:46:45.025Z,21.29
2022-11-20T06:49:11.353Z,21.46
2022-11-20T06:51:37.706Z,21.53
2022-11-20T06:54:04.055Z,21.44
2022-11-20T06:56:30.407Z,21.38
2022-11-20T06:58:56.730Z,21.34
2022-11-20T07:01:23.107Z,21.50
2022-11-20T07:03:54.026Z,21.33
2022-11-20T07:06:15.815Z,21.34
2022-11-20T07:08:42.176Z,21.37
2022-11-20T07:11:08.597Z,21.42
2022-11-20T07:13:34.978Z,21.26
2022-11-20T07:16:01.367Z,21.29
2022-11-20T07:18:27.771Z,21.29
2022-11-20T07:20:54.132Z,21.26
2022-11-20T07:23:20.484Z,21.39
2022-11-20T07:25:46.863Z,21.46
2022-11-20T07:28:13.187Z,21.45
2022-11-20T07:30:39.553Z,21.44
2022-11-20T07:33:05.899Z,21.44
2022-11-20T07:35:32.281Z,21.50
2022-11-20T07:37:58.613Z,21.50
2022-11-20T07:40:24.991Z,21.54
2022-11-20T07:42:51.317Z,21.56
2022-11-20T07:45:17.699Z,21.52
2022-11-20T07:47:44.091Z,21.49
2022-11-20T07:50:10.422Z,21.47
2022-11-20T07:52:36.747Z,21.57
2022-11-20T07:55:03.166Z,21.65
2022-11-20T07:57:29.460Z,21.58
2022-11-20T07:59:55.803Z,21.52
2022-11-20T08:02:22.139Z,21.45
2022-11-20T08:04:48.601Z,21.43
2022-11-20T08:07:15.041Z,21.39
2022-11-20T08:09:41.359Z,21.43
2022-11-20T08:12:07.720Z,21.44
2022-11-20T08:14:34.082Z,21.46
2022-11-20T08:17:00.422Z,21.36
2022-11-20T08:19:26.811Z,21.32
2022-11-20T08:21:53.176Z,21.41
2022-11-20T08:24:19.565Z,21.43
2022-11-20T08:26:45.893Z,21.51
2022-11-20T08:29:12.280Z,21.78
2022-11-20T08:31:38.667Z,21.90
2022-11-20T08:34:08.981Z,21.89
2022-11-20T08:36:31.320Z,21.93
2022-11-20T08:38:57.738Z,22.04
2022-11-20T08:41:24.052Z,21.95
2022-11-20T08:43:50.396Z,21.60
2022-11-20T08:46:16.751Z,21.36
2022-11-20T08:48:43.095Z,21.23
2022-11-20T08:51:09.416Z,21.12
2022-11-20T08:53:36.742Z,21.02
2022-11-20T08:56:03.067Z,21.03
2022-11-20T08:58:31.014Z,20.95
2022-11-20T09:00:55.803Z,20.94
2022-11-20T09:03:22.136Z,20.98
2022-11-20T09:05:48.425Z,21.00
2022-11-20T09:08:14.777Z,21.01
2022-11-20T09:10:41.098Z,21.07
2022-11-20T09:13:07.487Z,21.16
2022-11-20T09:15:33.906Z,21.21
2022-11-20T09:18:00.240Z,21.25
2022-11-20T09:20:26.558Z,21.22
2022-11-20T09:22:52.985Z,21.16
2022-11-20T09:25:19.351Z,20.99
2022-11-20T09:27:45.684Z,20.76
2022-11-20T09:30:12.082Z,20.71
2022-11-20T09:32:38.427Z,20.63
2022-11-20T09:35:04.805Z,20.36
2022-11-20T09:37:31.113Z,20.30
2022-11-20T09:39:57.432Z,20.19
2022-11-20T09:42:23.813Z,20.08
2022-11-20T09:44:50.316Z,19.87
2022-11-20T09:47:16.646Z,19.89
2022-11-20T09:49:42.971Z,19.90
2022-11-20T09:52:09.372Z,20.05
2022-11-20T09:54:35.723Z,20.19
2022-11-20T09:57:02.072Z,20.12
2022-11-20T09:59:28.443Z,19.99
2022-11-20T10:01:54.780Z,19.95
2022-11-20T10:04:21.279Z,20.03
2022-11-20T10:06:59.394Z,19.95
2022-11-20T10:09:14.012Z,19.82
2022-11-20T10:11:40.360Z,19.66
2022-11-20T10:14:06.725Z,19.58
2022-11-20T10:16:37.987Z,19.41
2022-11-20T10:18:59.447Z,19.40
2022-11-20T10:21:25.870Z,19.38
2022-11-20T10:23:52.224Z,19.38
2022-11-20T10:26:18.560Z,19.46
2022-11-20T10:28:52.789Z,19.33
2022-11-20T10:31:11.224Z,19.39
2022-11-20T10:33:50.403Z,19.45
2022-11-20T10:36:04.008Z,19.50
2022-11-20T10:38:30.354Z,19.61
2022-11-20T10:40:56.749Z,19.60
2022-11-20T10:43:23.088Z,19.47
2022-11-20T10:45:49.510Z,19.43
2022-11-20T10:48:15.826Z,19.48
2022-11-20T10:50:42.182Z,19.51
2022-11-20T10:53:08.595Z,19.59
2022-11-20T10:55:34.939Z,19.62
2022-11-20T10:58:01.313Z,19.52
2022-11-20T11:00:27.688Z,19.47
2022-11-20T11:02:54.060Z,19.44
2022-11-20T11:05:20.400Z,19.33
2022-11-20T11:07:46.723Z,19.25
2022-11-20T11:10:13.090Z,19.15
2022-11-20T11:12:39.411Z,18.76
2022-11-20T11:15:05.795Z,17.99
2022-11-20T11:17:32.164Z,16.59
2022-11-20T11:19:58.544Z,15.74
2022-11-20T11:22:24.893Z,15.53
2022-11-20T11:24:51.298Z,15.53
2022-11-20T11:27:18.037Z,15.27
2022-11-20T11:29:44.050Z,15.35
2022-11-20T11:32:10.416Z,15.45
2022-11-20T11:34:36.773Z,15.68
2022-11-20T11:37:03.095Z,15.69
2022-11-20T11:39:29.435Z,15.95
2022-11-20T11:41:55.758Z,16.02
2022-11-20T11:44:22.101Z,15.54
2022-11-20T11:46:48.437Z,15.47
2022-11-20T11:49:14.787Z,15.69
2022-11-20T11:51:41.122Z,16.05
2022-11-20T11:54:07.536Z,15.79
2022-11-20T11:56:33.847Z,15.57
2022-11-20T11:59:00.253Z,15.42
2022-11-20T12:01:26.567Z,15.28
2022-11-20T12:03:52.949Z,15.17
2022-11-20T12:06:19.309Z,15.13
2022-11-20T12:08:45.650Z,15.20
2022-11-20T12:11:12.041Z,15.30
2022-11-20T12:13:38.416Z,15.32
2022-11-20T12:16:04.778Z,15.37
2022-11-20T12:18:31.112Z,15.37
2022-11-20T12:20:57.473Z,15.47
2022-11-20T12:23:23.844Z,15.58
2022-11-20T12:25:50.223Z,15.61
2022-11-20T12:28:16.573Z,15.48
2022-11-20T12:30:42.936Z,15.41
2022-11-20T12:33:09.332Z,15.49
2022-11-20T12:35:35.666Z,15.52
2022-11-20T12:38:02.036Z,15.65
2022-11-20T12:40:28.362Z,15.53
2022-11-20T12:42:54.752Z,15.51
2022-11-20T12:45:21.110Z,15.55
2022-11-20T12:47:47.523Z,15.60
2022-11-20T12:50:13.838Z,15.68
2022-11-20T12:52:40.181Z,15.75
2022-11-20T12:55:06.547Z,15.77
2022-11-20T12:57:32.893Z,15.81
2022-11-20T12:59:59.262Z,15.80
2022-11-20T13:02:25.601Z,15.68
2022-11-20T13:04:51.928Z,15.62
2022-11-20T13:07:18.377Z,15.72
2022-11-20T13:09:44.647Z,15.71
2022-11-20T13:12:11.031Z,15.62
2022-11-20T13:14:37.399Z,15.58
2022-11-20T13:17:06.237Z,15.51
2022-11-20T13:19:30.140Z,15.36
2022-11-20T13:21:56.515Z,15.45
2022-11-20T13:24:22.995Z,15.55
2022-11-20T13:26:49.171Z,15.67
2022-11-20T13:29:15.491Z,15.66
2022-11-20T13:31:41.855Z,15.82
2022-11-20T13:34:08.181Z,15.85
2022-11-20T13:36:34.603Z,15.90
2022-11-20T13:39:00.929Z,15.94
2022-11-20T13:41:27.310Z,15.81
2022-11-20T13:43:53.631Z,15.78
2022-11-20T13:46:20.033Z,15.93
2022-11-20T13:48:46.344Z,16.05
2022-11-20T13:51:12.690Z,16.13
2022-11-20T13:53:39.053Z,16.18
2022-11-20T13:56:05.431Z,16.21
2022-11-20T13:58:31.805Z,16.22
2022-11-20T14:00:58.250Z,16.26
2022-11-20T14:03:44.206Z,16.25
2022-11-20T14:05:50.950Z,16.14
2022-11-20T14:08:17.323Z,16.23
2022-11-20T14:10:43.678Z,16.35
2022-11-20T14:13:10.006Z,16.44
2022-11-20T14:15:40.449Z,16.47
2022-11-20T14:18:02.804Z,16.45
2022-11-20T14:20:29.255Z,16.45
2022-11-20T14:22:55.584Z,16.43
2022-11-20T14:25:21.968Z,16.44
2022-11-20T14:27:48.285Z,16.53
2022-11-20T14:30:14.778Z,16.49
2022-11-20T14:32:41.125Z,16.59
2022-11-20T14:35:07.505Z,16.61
2022-11-20T14:37:33.890Z,16.55
2022-11-20T14:40:00.270Z,16.63
2022-11-20T14:42:26.592Z,16.64
2022-11-20T14:44:52.938Z,16.61
2022-11-20T14:47:19.267Z,16.74
2022-11-20T14:49:45.652Z,16.76
2022-11-20T14:52:12.013Z,16.81
2022-11-20T14:54:38.351Z,16.72
2022-11-20T14:57:04.739Z,16.78
2022-11-20T14:59:31.073Z,16.77
2022-11-20T15:01:57.481Z,16.71
2022-11-20T15:04:23.977Z,16.74
2022-11-20T15:06:50.155Z,16.72
2022-11-20T15:09:16.497Z,16.76
2022-11-20T15:11:42.858Z,16.72
2022-11-20T15:14:09.242Z,16.71
2022-11-20T15:16:35.558Z,16.71
2022-11-20T15:19:01.942Z,16.69
2022-11-20T15:21:28.285Z,16.67
2022-11-20T15:23:54.601Z,16.81
2022-11-20T15:26:21.023Z,16.92
2022-11-20T15:28:47.389Z,16.81
2022-11-20T15:31:13.770Z,16.77
2022-11-20T15:33:40.117Z,16.78
2022-11-20T15:36:06.506Z,16.70
2022-11-20T15:38:32.864Z,16.68
2022-11-20T15:40:59.309Z,16.56
2022-11-20T15:43:25.670Z,16.54
2022-11-20T15:45:52.013Z,16.52
2022-11-20T15:48:18.381Z,16.57
2022-11-20T15:50:44.770Z,16.45
2022-11-20T15:53:11.097Z,16.27
2022-11-20T15:55:37.449Z,19.82
2022-11-20T15:58:03.864Z,18.85
2022-11-20T16:00:30.203Z,18.13
2022-11-20T16:02:56.576Z,17.77
2022-11-20T16:05:22.974Z,17.56
2022-11-20T16:07:49.392Z,17.34
2022-11-20T16:10:15.735Z,17.49
2022-11-20T16:12:42.103Z,17.47
2022-11-20T16:15:13.465Z,17.40
2022-11-20T16:17:34.812Z,17.55
2022-11-20T16:20:01.199Z,17.60
2022-11-20T16:22:27.558Z,17.51
2022-11-20T16:24:53.940Z,17.50
2022-11-20T16:27:20.265Z,17.51
2022-11-20T16:29:46.706Z,17.54
2022-11-20T16:32:13.080Z,17.61
2022-11-20T16:34:39.398Z,17.52
2022-11-20T16:37:05.806Z,17.63
2022-11-20T16:39:32.185Z,17.69
2022-11-20T16:41:58.506Z,17.63
2022-11-20T16:44:25.353Z,17.60
2022-11-20T16:46:51.398Z,17.45
2022-11-20T16:49:17.579Z,17.36
2022-11-20T16:51:43.952Z,17.25
2022-11-20T16:54:10.344Z,17.17
2022-11-20T16:56:36.702Z,17.09
2022-11-20T16:59:03.073Z,17.16
2022-11-20T17:01:29.534Z,17.21
2022-11-20T17:03:55.835Z,17.32
2022-11-20T17:06:22.219Z,17.19
2022-11-20T17:08:48.625Z,17.23
2022-11-20T17:11:15.026Z,17.37
2022-11-20T17:13:41.416Z,17.43
2022-11-20T17:16:07.726Z,17.49
2022-11-20T17:18:34.124Z,17.33
2022-11-20T17:21:00.432Z,17.17
2022-11-20T17:23:26.851Z,17.08
2022-11-20T17:25:53.212Z,17.00
2022-11-20T17:28:19.562Z,16.94
2022-11-20T17:30:45.924Z,16.89
2022-11-20T17:33:12.317Z,16.91
2022-11-20T17:35:38.739Z,16.83
2022-11-20T17:38:05.088Z,16.93
2022-11-20T17:40:31.472Z,16.90
2022-11-20T17:42:57.811Z,16.84
2022-11-20T17:45:24.179Z,16.89
2022-11-20T17:47:50.514Z,16.89
2022-11-20T17:50:16.874Z,16.88
2022-11-20T17:52:43.261Z,16.92
2022-11-20T17:55:09.635Z,16.81
2022-11-20T17:57:36.008Z,16.71
2022-11-20T18:00:02.325Z,16.74
2022-11-20T18:02:29.021Z,16.85
2022-11-20T18:04:55.377Z,16.89
2022-11-20T18:07:21.796Z,16.92
2022-11-20T18:09:48.129Z,16.86
2022-11-20T18:12:14.471Z,16.76
2022-11-20T18:14:40.836Z,16.52
2022-11-20T18:17:07.243Z,16.51
2022-11-20T18:19:34.805Z,16.57
2022-11-20T18:21:59.960Z,16.67
2022-11-20T18:24:26.473Z,16.66
2022-11-20T18:26:52.743Z,16.69
2022-11-20T18:29:19.054Z,16.61
2022-11-20T18:31:45.400Z,16.69
2022-11-20T18:34:11.764Z,16.74
2022-11-20T18:36:38.098Z,16.79
2022-11-20T18:39:04.462Z,16.78
2022-11-20T18:41:30.856Z,16.89
2022-11-20T18:43:57.227Z,16.96
2022-11-20T18:46:23.579Z,17.01
2022-11-20T18:48:49.930Z,17.00
2022-11-20T18:51:16.343Z,17.04
2022-11-20T18:53:47.128Z,16.91
2022-11-20T18:56:09.001Z,16.87
2022-11-20T18:58:35.360Z,16.74
2022-11-20T19:01:01.732Z,16.83
2022-11-20T19:03:28.012Z,16.70
2022-11-20T19:05:54.397Z,16.54
2022-11-20T19:08:20.709Z,16.35
2022-11-20T19:10:47.089Z,16.06
2022-11-20T19:13:13.414Z,15.73
2022-11-20T19:15:39.793Z,15.57
2022-11-20T19:18:06.163Z,15.49
2022-11-20T19:20:32.505Z,15.50
2022-11-20T19:22:58.871Z,15.28
2022-11-20T19:25:25.250Z,15.14
2022-11-20T19:27:51.587Z,15.27
2022-11-20T19:30:17.918Z,15.22
2022-11-20T19:32:44.246Z,15.32
2022-11-20T19:35:10.627Z,15.27
2022-11-20T19:37:36.964Z,15.25
2022-11-20T19:40:03.387Z,15.06
2022-11-20T19:42:29.695Z,15.21
2022-11-20T19:44:56.035Z,15.21
2022-11-20T19:47:22.952Z,15.23
2022-11-20T19:49:48.746Z,15.31
2022-11-20T19:52:15.138Z,15.20
2022-11-20T19:54:41.476Z,15.27
2022-11-20T19:57:07.791Z,15.30
2022-11-20T19:59:34.138Z,15.38
2022-11-20T20:02:00.532Z,15.34
2022-11-20T20:04:26.833Z,15.28
2022-11-20T20:06:53.146Z,15.17
2022-11-20T20:09:19.522Z,15.23
2022-11-20T20:11:45.847Z,15.21
2022-11-20T20:14:12.183Z,15.19
2022-11-20T20:16:38.542Z,15.35
2022-11-20T20:19:04.926Z,15.47
2022-11-20T20:21:31.270Z,15.50
2022-11-20T20:23:57.620Z,15.53
2022-11-20T20:26:23.974Z,15.53
2022-11-20T20:28:50.383Z,15.55
2022-11-20T20:31:16.700Z,15.45
2022-11-20T20:33:43.081Z,15.42
2022-11-20T20:36:09.420Z,15.43
2022-11-20T20:38:35.765Z,15.35
2022-11-20T20:41:02.079Z,15.43
2022-11-20T20:43:28.462Z,15.25
2022-11-20T20:45:54.781Z,15.21
2022-11-20T20:48:21.161Z,15.16
2022-11-20T20:50:47.542Z,15.20
2022-11-20T20:53:13.878Z,15.19
2022-11-20T20:55:40.236Z,15.24
2022-11-20T20:58:06.651Z,15.17
2022-11-20T21:00:32.963Z,15.09
2022-11-20T21:02:59.307Z,15.00
2022-11-20T21:05:25.673Z,14.95
2022-11-20T21:07:52.020Z,15.05
2022-11-20T21:10:23.500Z,14.94
2022-11-20T21:12:44.775Z,14.99
2022-11-20T21:15:11.083Z,14.93
2022-11-20T21:17:37.468Z,14.81
2022-11-20T21:20:03.781Z,14.86
2022-11-20T21:22:33.916Z,14.88
2022-11-20T21:24:56.503Z,14.62
2022-11-20T21:27:22.871Z,14.34
2022-11-20T21:29:49.225Z,14.58
2022-11-20T21:32:15.575Z,14.57
2022-11-20T21:34:41.937Z,14.74
2022-11-20T21:37:08.274Z,14.83
2022-11-20T21:39:34.634Z,15.07
2022-11-20T21:42:00.969Z,15.15
2022-11-20T21:44:31.538Z,15.15
2022-11-20T21:46:53.707Z,14.99
2022-11-20T21:49:20.068Z,14.87
2022-11-20T21:51:46.407Z,14.74
2022-11-20T21:54:12.728Z,14.69
2022-11-20T21:56:39.141Z,14.74
2022-11-20T21:59:05.456Z,14.77
2022-11-20T22:01:32.096Z,14.76
2022-11-20T22:03:58.187Z,14.59
2022-11-20T22:06:24.565Z,14.70
2022-11-20T22:08:50.918Z,14.69
2022-11-20T22:11:17.261Z,14.63
2022-11-20T22:13:43.579Z,14.71
2022-11-20T22:16:09.924Z,14.56
2022-11-20T22:18:36.291Z,14.55
2022-11-20T22:21:02.673Z,14.56
2022-11-20T22:23:28.991Z,14.62
2022-11-20T22:25:55.373Z,14.60
2022-11-20T22:28:21.767Z,14.50
2022-11-20T22:30:48.139Z,14.61
2022-11-20T22:33:14.518Z,14.65
2022-11-20T22:35:40.901Z,14.73
2022-11-20T22:38:07.255Z,14.67
2022-11-20T22:40:33.648Z,14.71
2022-11-20T22:42:59.963Z,14.60
2022-11-20T22:45:26.339Z,14.62
2022-11-20T22:47:52.656Z,14.71
2022-11-20T22:50:18.995Z,14.67
2022-11-20T22:52:45.356Z,14.70
2022-11-20T22:55:16.096Z,14.76
2022-11-20T22:57:38.027Z,14.95
2022-11-20T23:00:04.363Z,15.01
2022-11-20T23:02:30.682Z,14.88
2022-11-20T23:04:57.095Z,15.03
2022-11-20T23:07:23.494Z,15.04
2022-11-20T23:09:49.757Z,14.93
2022-11-20T23:12:16.115Z,14.88
2022-11-20T23:14:42.450Z,14.82
2022-11-20T23:17:08.809Z,14.85
2022-11-20T23:19:35.194Z,14.82
2022-11-20T23:22:01.510Z,14.85
2022-11-20T23:24:28.115Z,14.82
2022-11-20T23:26:54.204Z,14.94
2022-11-20T23:29:20.629Z,15.01
2022-11-20T23:31:46.979Z,14.85
2022-11-20T23:34:13.313Z,15.07
2022-11-20T23:36:39.632Z,15.20
2022-11-20T23:39:05.975Z,15.05
2022-11-20T23:41:32.334Z,15.02
2022-11-20T23:43:58.744Z,14.88
2022-11-20T23:46:25.054Z,15.03
2022-11-20T23:48:51.399Z,14.96
2022-11-20T23:51:17.738Z,15.09
2022-11-20T23:53:44.087Z,15.12
